sensor_id;sensor_type;location;lat;lon;timestamp;temperature;humidity
76878;DHT22;65843;50.692;12.844;2023-12-28T00:00:21;15.90;65.00
76878;DHT22;65843;50.692;12.844;2023-12-28T00:01:22;15.90;65.10
76878;DHT22;65843;50.692;12.844;2023-12-28T00:02:23;15.90;65.00
76878;DHT22;65843;50.692;12.844;2023-12-28T00:03:24;15.90;65.10
76878;DHT22;65843;50.692;12.844;2023-12-28T00:04:25;15.90;62.90
76878;DHT22;65843;50.692;12.844;2023-12-28T00:05:28;15.80;59.80
76878;DHT22;65843;50.692;12.844;2023-12-28T00:06:29;15.80;59.70
76878;DHT22;65843;50.692;12.844;2023-12-28T00:07:30;15.80;59.10
76878;DHT22;65843;50.692;12.844;2023-12-28T00:08:31;15.60;59.00
76878;DHT22;65843;50.692;12.844;2023-12-28T00:09:33;15.60;59.10
76878;DHT22;65843;50.692;12.844;2023-12-28T00:10:33;15.60;59.40
76878;DHT22;65843;50.692;12.844;2023-12-28T00:11:34;15.50;58.70
76878;DHT22;65843;50.692;12.844;2023-12-28T00:12:35;15.40;58.40
76878;DHT22;65843;50.692;12.844;2023-12-28T00:13:36;15.40;58.70
76878;DHT22;65843;50.692;12.844;2023-12-28T00:14:37;15.30;58.80
76878;DHT22;65843;50.692;12.844;2023-12-28T00:15:38;15.20;58.90
76878;DHT22;65843;50.692;12.844;2023-12-28T00:16:39;15.20;58.70
76878;DHT22;65843;50.692;12.844;2023-12-28T00:17:40;15.20;58.50
76878;DHT22;65843;50.692;12.844;2023-12-28T00:18:40;15.10;58.40
76878;DHT22;65843;50.692;12.844;2023-12-28T00:19:41;15.00;59.10
76878;DHT22;65843;50.692;12.844;2023-12-28T00:20:42;15.00;58.90
76878;DHT22;65843;50.692;12.844;2023-12-28T00:21:43;15.00;59.20
76878;DHT22;65843;50.692;12.844;2023-12-28T00:22:45;15.00;59.20
76878;DHT22;65843;50.692;12.844;2023-12-28T00:23:46;15.00;59.00
76878;DHT22;65843;50.692;12.844;2023-12-28T00:24:47;15.00;58.20
76878;DHT22;65843;50.692;12.844;2023-12-28T00:25:48;15.00;58.70
76878;DHT22;65843;50.692;12.844;2023-12-28T00:26:48;14.90;59.40
76878;DHT22;65843;50.692;12.844;2023-12-28T00:27:49;14.90;59.40
76878;DHT22;65843;50.692;12.844;2023-12-28T00:28:50;14.90;59.40
76878;DHT22;65843;50.692;12.844;2023-12-28T00:29:52;14.90;59.30
76878;DHT22;65843;50.692;12.844;2023-12-28T00:30:53;14.90;59.50
76878;DHT22;65843;50.692;12.844;2023-12-28T00:31:54;14.90;59.10
76878;DHT22;65843;50.692;12.844;2023-12-28T00:32:54;14.90;59.40
76878;DHT22;65843;50.692;12.844;2023-12-28T00:33:55;14.90;59.90
76878;DHT22;65843;50.692;12.844;2023-12-28T00:34:56;14.90;59.30
76878;DHT22;65843;50.692;12.844;2023-12-28T00:35:57;14.90;58.70
76878;DHT22;65843;50.692;12.844;2023-12-28T00:36:58;14.90;59.70
76878;DHT22;65843;50.692;12.844;2023-12-28T00:37:59;14.90;59.20
76878;DHT22;65843;50.692;12.844;2023-12-28T00:39:00;14.90;58.70
76878;DHT22;65843;50.692;12.844;2023-12-28T00:40:01;14.90;59.60
76878;DHT22;65843;50.692;12.844;2023-12-28T00:41:01;14.80;58.30
76878;DHT22;65843;50.692;12.844;2023-12-28T00:42:03;14.80;58.90
76878;DHT22;65843;50.692;12.844;2023-12-28T00:43:04;14.80;58.60
76878;DHT22;65843;50.692;12.844;2023-12-28T00:44:05;14.80;59.00
76878;DHT22;65843;50.692;12.844;2023-12-28T00:45:09;14.80;59.00
76878;DHT22;65843;50.692;12.844;2023-12-28T00:46:10;14.80;58.20
76878;DHT22;65843;50.692;12.844;2023-12-28T00:47:11;14.80;58.80
76878;DHT22;65843;50.692;12.844;2023-12-28T00:48:12;14.80;58.40
76878;DHT22;65843;50.692;12.844;2023-12-28T00:49:13;14.80;58.50
76878;DHT22;65843;50.692;12.844;2023-12-28T00:50:14;14.80;58.20
76878;DHT22;65843;50.692;12.844;2023-12-28T00:51:19;14.80;59.20
76878;DHT22;65843;50.692;12.844;2023-12-28T00:52:20;14.80;58.70
76878;DHT22;65843;50.692;12.844;2023-12-28T00:53:21;14.80;58.10
76878;DHT22;65843;50.692;12.844;2023-12-28T00:54:22;14.80;58.10
76878;DHT22;65843;50.692;12.844;2023-12-28T00:55:23;14.80;58.30
76878;DHT22;65843;50.692;12.844;2023-12-28T00:56:24;14.80;58.30
76878;DHT22;65843;50.692;12.844;2023-12-28T00:57:25;14.80;58.00
76878;DHT22;65843;50.692;12.844;2023-12-28T00:58:25;14.80;57.80
76878;DHT22;65843;50.692;12.844;2023-12-28T00:59:26;14.80;58.20
76878;DHT22;65843;50.692;12.844;2023-12-28T01:00:27;14.80;58.70
76878;DHT22;65843;50.692;12.844;2023-12-28T01:01:29;14.80;58.00
76878;DHT22;65843;50.692;12.844;2023-12-28T01:02:31;14.70;58.40
76878;DHT22;65843;50.692;12.844;2023-12-28T01:03:32;14.70;58.10
76878;DHT22;65843;50.692;12.844;2023-12-28T01:04:33;14.70;57.40
76878;DHT22;65843;50.692;12.844;2023-12-28T01:05:33;14.70;58.30
76878;DHT22;65843;50.692;12.844;2023-12-28T01:06:34;14.70;58.40
76878;DHT22;65843;50.692;12.844;2023-12-28T01:07:38;14.70;58.30
76878;DHT22;65843;50.692;12.844;2023-12-28T01:08:39;14.70;58.50
76878;DHT22;65843;50.692;12.844;2023-12-28T01:09:40;14.70;58.50
76878;DHT22;65843;50.692;12.844;2023-12-28T01:10:41;14.70;58.20
76878;DHT22;65843;50.692;12.844;2023-12-28T01:11:41;14.70;58.40
76878;DHT22;65843;50.692;12.844;2023-12-28T01:12:42;14.70;58.30
76878;DHT22;65843;50.692;12.844;2023-12-28T01:13:44;14.70;58.20
76878;DHT22;65843;50.692;12.844;2023-12-28T01:14:45;14.70;58.40
76878;DHT22;65843;50.692;12.844;2023-12-28T01:15:45;14.70;58.20
76878;DHT22;65843;50.692;12.844;2023-12-28T01:16:46;14.70;57.40
76878;DHT22;65843;50.692;12.844;2023-12-28T01:17:47;14.70;58.30
76878;DHT22;65843;50.692;12.844;2023-12-28T01:18:48;14.70;57.80
76878;DHT22;65843;50.692;12.844;2023-12-28T01:19:49;14.70;57.70
76878;DHT22;65843;50.692;12.844;2023-12-28T01:20:50;14.70;57.10
76878;DHT22;65843;50.692;12.844;2023-12-28T01:21:50;14.70;57.60
76878;DHT22;65843;50.692;12.844;2023-12-28T01:22:51;14.70;57.20
76878;DHT22;65843;50.692;12.844;2023-12-28T01:23:52;14.70;57.40
76878;DHT22;65843;50.692;12.844;2023-12-28T01:24:54;14.70;58.00
76878;DHT22;65843;50.692;12.844;2023-12-28T01:25:55;14.70;57.40
76878;DHT22;65843;50.692;12.844;2023-12-28T01:26:57;14.70;57.00
76878;DHT22;65843;50.692;12.844;2023-12-28T01:27:58;14.70;57.10
76878;DHT22;65843;50.692;12.844;2023-12-28T01:28:58;14.70;57.20
76878;DHT22;65843;50.692;12.844;2023-12-28T01:30:02;14.70;57.20
76878;DHT22;65843;50.692;12.844;2023-12-28T01:31:03;14.70;57.30
76878;DHT22;65843;50.692;12.844;2023-12-28T01:32:04;14.70;56.20
76878;DHT22;65843;50.692;12.844;2023-12-28T01:33:05;14.70;57.20
76878;DHT22;65843;50.692;12.844;2023-12-28T01:34:06;14.70;56.80
76878;DHT22;65843;50.692;12.844;2023-12-28T01:35:09;14.70;56.20
76878;DHT22;65843;50.692;12.844;2023-12-28T01:36:20;14.70;57.50
76878;DHT22;65843;50.692;12.844;2023-12-28T01:37:21;14.70;56.80
76878;DHT22;65843;50.692;12.844;2023-12-28T01:38:22;14.70;56.30
76878;DHT22;65843;50.692;12.844;2023-12-28T01:39:23;14.70;58.20
76878;DHT22;65843;50.692;12.844;2023-12-28T01:40:24;14.70;57.40
76878;DHT22;65843;50.692;12.844;2023-12-28T01:41:25;14.70;56.20
76878;DHT22;65843;50.692;12.844;2023-12-28T01:42:26;14.70;56.60
76878;DHT22;65843;50.692;12.844;2023-12-28T01:43:27;14.70;56.90
76878;DHT22;65843;50.692;12.844;2023-12-28T01:44:27;14.70;56.40
76878;DHT22;65843;50.692;12.844;2023-12-28T01:45:28;14.70;56.00
76878;DHT22;65843;50.692;12.844;2023-12-28T01:46:29;14.70;56.80
76878;DHT22;65843;50.692;12.844;2023-12-28T01:47:31;14.70;57.10
76878;DHT22;65843;50.692;12.844;2023-12-28T01:48:32;14.70;56.80
76878;DHT22;65843;50.692;12.844;2023-12-28T01:49:33;14.70;56.80
76878;DHT22;65843;50.692;12.844;2023-12-28T01:50:35;14.70;55.70
76878;DHT22;65843;50.692;12.844;2023-12-28T01:51:36;14.80;56.90
76878;DHT22;65843;50.692;12.844;2023-12-28T01:52:37;14.70;56.00
76878;DHT22;65843;50.692;12.844;2023-12-28T01:53:38;14.70;55.20
76878;DHT22;65843;50.692;12.844;2023-12-28T01:54:39;14.80;56.70
76878;DHT22;65843;50.692;12.844;2023-12-28T01:55:40;14.80;55.30
76878;DHT22;65843;50.692;12.844;2023-12-28T01:56:41;14.70;55.50
76878;DHT22;65843;50.692;12.844;2023-12-28T01:57:42;14.80;55.30
76878;DHT22;65843;50.692;12.844;2023-12-28T01:58:43;14.80;55.20
76878;DHT22;65843;50.692;12.844;2023-12-28T01:59:45;14.80;55.10
76878;DHT22;65843;50.692;12.844;2023-12-28T02:00:46;14.70;55.70
76878;DHT22;65843;50.692;12.844;2023-12-28T02:01:47;14.80;55.00
76878;DHT22;65843;50.692;12.844;2023-12-28T02:02:49;14.70;55.90
76878;DHT22;65843;50.692;12.844;2023-12-28T02:03:51;14.80;54.40
76878;DHT22;65843;50.692;12.844;2023-12-28T02:04:51;14.80;55.70
76878;DHT22;65843;50.692;12.844;2023-12-28T02:05:52;14.80;55.00
76878;DHT22;65843;50.692;12.844;2023-12-28T02:06:57;14.80;55.20
76878;DHT22;65843;50.692;12.844;2023-12-28T02:07:58;14.80;55.00
76878;DHT22;65843;50.692;12.844;2023-12-28T02:08:59;14.80;55.30
76878;DHT22;65843;50.692;12.844;2023-12-28T02:10:00;14.80;54.80
76878;DHT22;65843;50.692;12.844;2023-12-28T02:11:01;14.80;55.70
76878;DHT22;65843;50.692;12.844;2023-12-28T02:12:02;14.80;55.50
76878;DHT22;65843;50.692;12.844;2023-12-28T02:13:03;14.80;55.70
76878;DHT22;65843;50.692;12.844;2023-12-28T02:14:04;14.80;55.70
76878;DHT22;65843;50.692;12.844;2023-12-28T02:15:05;14.80;54.70
76878;DHT22;65843;50.692;12.844;2023-12-28T02:16:09;14.80;54.40
76878;DHT22;65843;50.692;12.844;2023-12-28T02:17:12;14.80;54.30
76878;DHT22;65843;50.692;12.844;2023-12-28T02:18:18;14.80;54.40
76878;DHT22;65843;50.692;12.844;2023-12-28T02:20:05;14.80;54.80
76878;DHT22;65843;50.692;12.844;2023-12-28T02:20:41;14.80;55.30
76878;DHT22;65843;50.692;12.844;2023-12-28T02:21:43;14.80;55.00
76878;DHT22;65843;50.692;12.844;2023-12-28T02:22:44;14.80;55.10
76878;DHT22;65843;50.692;12.844;2023-12-28T02:23:46;14.90;56.10
76878;DHT22;65843;50.692;12.844;2023-12-28T02:26:03;14.90;55.10
76878;DHT22;65843;50.692;12.844;2023-12-28T02:27:04;14.90;54.70
76878;DHT22;65843;50.692;12.844;2023-12-28T02:28:05;14.90;54.70
76878;DHT22;65843;50.692;12.844;2023-12-28T02:29:06;14.90;54.40
76878;DHT22;65843;50.692;12.844;2023-12-28T02:30:09;14.90;54.40
76878;DHT22;65843;50.692;12.844;2023-12-28T02:31:14;14.90;55.20
76878;DHT22;65843;50.692;12.844;2023-12-28T02:32:15;14.90;54.80
76878;DHT22;65843;50.692;12.844;2023-12-28T02:33:33;14.90;55.00
76878;DHT22;65843;50.692;12.844;2023-12-28T02:34:34;14.90;54.00
76878;DHT22;65843;50.692;12.844;2023-12-28T02:36:45;14.90;54.40
76878;DHT22;65843;50.692;12.844;2023-12-28T02:37:47;14.90;54.80
76878;DHT22;65843;50.692;12.844;2023-12-28T02:38:49;14.90;54.50
76878;DHT22;65843;50.692;12.844;2023-12-28T02:39:52;14.90;55.00
76878;DHT22;65843;50.692;12.844;2023-12-28T02:40:53;15.00;55.00
76878;DHT22;65843;50.692;12.844;2023-12-28T02:41:55;15.00;54.80
76878;DHT22;65843;50.692;12.844;2023-12-28T02:42:56;15.00;54.10
76878;DHT22;65843;50.692;12.844;2023-12-28T02:43:57;14.90;54.90
76878;DHT22;65843;50.692;12.844;2023-12-28T02:44:58;15.00;54.20
76878;DHT22;65843;50.692;12.844;2023-12-28T02:45:59;15.00;54.90
76878;DHT22;65843;50.692;12.844;2023-12-28T02:46:59;15.00;55.10
76878;DHT22;65843;50.692;12.844;2023-12-28T02:48:01;15.00;55.10
76878;DHT22;65843;50.692;12.844;2023-12-28T02:49:01;15.00;54.90
76878;DHT22;65843;50.692;12.844;2023-12-28T02:50:02;15.00;55.00
76878;DHT22;65843;50.692;12.844;2023-12-28T02:51:03;15.00;55.30
76878;DHT22;65843;50.692;12.844;2023-12-28T02:52:04;15.00;54.50
76878;DHT22;65843;50.692;12.844;2023-12-28T02:53:05;15.00;53.80
76878;DHT22;65843;50.692;12.844;2023-12-28T02:54:06;15.00;54.20
76878;DHT22;65843;50.692;12.844;2023-12-28T02:55:07;15.00;53.60
76878;DHT22;65843;50.692;12.844;2023-12-28T02:56:08;15.00;53.70
76878;DHT22;65843;50.692;12.844;2023-12-28T02:57:09;15.00;54.00
76878;DHT22;65843;50.692;12.844;2023-12-28T02:58:10;15.00;54.20
76878;DHT22;65843;50.692;12.844;2023-12-28T02:59:11;15.00;54.70
76878;DHT22;65843;50.692;12.844;2023-12-28T03:00:12;15.00;54.80
76878;DHT22;65843;50.692;12.844;2023-12-28T03:01:13;15.00;53.70
76878;DHT22;65843;50.692;12.844;2023-12-28T03:02:14;15.00;53.60
76878;DHT22;65843;50.692;12.844;2023-12-28T03:03:15;15.00;54.70
76878;DHT22;65843;50.692;12.844;2023-12-28T03:04:15;15.00;54.20
76878;DHT22;65843;50.692;12.844;2023-12-28T03:05:16;15.00;53.40
76878;DHT22;65843;50.692;12.844;2023-12-28T03:06:17;15.00;53.00
76878;DHT22;65843;50.692;12.844;2023-12-28T03:07:18;15.00;53.60
76878;DHT22;65843;50.692;12.844;2023-12-28T03:08:19;14.90;53.70
76878;DHT22;65843;50.692;12.844;2023-12-28T03:09:20;15.00;54.20
76878;DHT22;65843;50.692;12.844;2023-12-28T03:10:21;15.00;53.50
76878;DHT22;65843;50.692;12.844;2023-12-28T03:11:21;15.00;53.50
76878;DHT22;65843;50.692;12.844;2023-12-28T03:12:22;15.00;53.70
76878;DHT22;65843;50.692;12.844;2023-12-28T03:13:23;15.00;54.90
76878;DHT22;65843;50.692;12.844;2023-12-28T03:14:24;15.00;54.40
76878;DHT22;65843;50.692;12.844;2023-12-28T03:15:25;15.00;54.40
76878;DHT22;65843;50.692;12.844;2023-12-28T03:16:26;15.00;54.10
76878;DHT22;65843;50.692;12.844;2023-12-28T03:17:27;15.00;54.70
76878;DHT22;65843;50.692;12.844;2023-12-28T03:18:29;15.00;54.50
76878;DHT22;65843;50.692;12.844;2023-12-28T03:19:30;15.00;54.70
76878;DHT22;65843;50.692;12.844;2023-12-28T03:20:31;15.00;55.60
76878;DHT22;65843;50.692;12.844;2023-12-28T03:21:32;15.00;55.40
76878;DHT22;65843;50.692;12.844;2023-12-28T03:22:33;15.00;55.10
76878;DHT22;65843;50.692;12.844;2023-12-28T03:23:34;15.00;55.20
76878;DHT22;65843;50.692;12.844;2023-12-28T03:24:36;15.00;54.90
76878;DHT22;65843;50.692;12.844;2023-12-28T03:25:37;15.00;54.70
76878;DHT22;65843;50.692;12.844;2023-12-28T03:26:38;15.00;54.40
76878;DHT22;65843;50.692;12.844;2023-12-28T03:27:39;15.00;55.00
76878;DHT22;65843;50.692;12.844;2023-12-28T03:28:40;15.00;54.70
76878;DHT22;65843;50.692;12.844;2023-12-28T03:29:41;15.00;54.10
76878;DHT22;65843;50.692;12.844;2023-12-28T03:30:43;15.00;54.50
76878;DHT22;65843;50.692;12.844;2023-12-28T03:31:44;15.00;54.30
76878;DHT22;65843;50.692;12.844;2023-12-28T03:32:44;15.00;54.60
76878;DHT22;65843;50.692;12.844;2023-12-28T03:33:45;15.00;54.50
76878;DHT22;65843;50.692;12.844;2023-12-28T03:34:46;15.00;55.40
76878;DHT22;65843;50.692;12.844;2023-12-28T03:35:47;15.00;54.30
76878;DHT22;65843;50.692;12.844;2023-12-28T03:36:48;15.00;54.80
76878;DHT22;65843;50.692;12.844;2023-12-28T03:37:49;15.00;55.10
76878;DHT22;65843;50.692;12.844;2023-12-28T03:38:50;15.00;54.80
76878;DHT22;65843;50.692;12.844;2023-12-28T03:39:51;15.00;55.60
76878;DHT22;65843;50.692;12.844;2023-12-28T03:40:52;14.90;54.70
76878;DHT22;65843;50.692;12.844;2023-12-28T03:41:53;14.90;54.90
76878;DHT22;65843;50.692;12.844;2023-12-28T03:42:54;14.90;55.10
76878;DHT22;65843;50.692;12.844;2023-12-28T03:43:54;14.90;55.30
76878;DHT22;65843;50.692;12.844;2023-12-28T03:44:55;15.00;54.90
76878;DHT22;65843;50.692;12.844;2023-12-28T03:45:56;15.00;54.80
76878;DHT22;65843;50.692;12.844;2023-12-28T03:46:57;15.00;54.70
76878;DHT22;65843;50.692;12.844;2023-12-28T03:47:58;15.00;54.80
76878;DHT22;65843;50.692;12.844;2023-12-28T03:48:59;14.90;54.80
76878;DHT22;65843;50.692;12.844;2023-12-28T03:49:59;15.00;53.90
76878;DHT22;65843;50.692;12.844;2023-12-28T03:51:00;14.90;53.50
76878;DHT22;65843;50.692;12.844;2023-12-28T03:52:01;14.90;54.10
76878;DHT22;65843;50.692;12.844;2023-12-28T03:53:02;15.00;54.60
76878;DHT22;65843;50.692;12.844;2023-12-28T03:54:03;14.90;54.10
76878;DHT22;65843;50.692;12.844;2023-12-28T03:55:04;14.90;55.00
76878;DHT22;65843;50.692;12.844;2023-12-28T03:56:05;14.90;54.50
76878;DHT22;65843;50.692;12.844;2023-12-28T03:57:06;14.90;54.80
76878;DHT22;65843;50.692;12.844;2023-12-28T03:58:07;14.90;55.10
76878;DHT22;65843;50.692;12.844;2023-12-28T03:59:08;14.90;54.50
76878;DHT22;65843;50.692;12.844;2023-12-28T04:00:09;14.90;54.00
76878;DHT22;65843;50.692;12.844;2023-12-28T04:01:10;14.90;54.80
76878;DHT22;65843;50.692;12.844;2023-12-28T04:02:11;14.90;54.30
76878;DHT22;65843;50.692;12.844;2023-12-28T04:03:12;14.90;54.70
76878;DHT22;65843;50.692;12.844;2023-12-28T04:04:13;14.90;54.40
76878;DHT22;65843;50.692;12.844;2023-12-28T04:05:14;14.90;54.70
76878;DHT22;65843;50.692;12.844;2023-12-28T04:06:15;14.90;54.70
76878;DHT22;65843;50.692;12.844;2023-12-28T04:07:16;14.90;55.00
76878;DHT22;65843;50.692;12.844;2023-12-28T04:08:17;14.90;54.50
76878;DHT22;65843;50.692;12.844;2023-12-28T04:09:17;14.90;54.30
76878;DHT22;65843;50.692;12.844;2023-12-28T04:10:28;14.90;54.30
76878;DHT22;65843;50.692;12.844;2023-12-28T04:11:29;14.90;54.50
76878;DHT22;65843;50.692;12.844;2023-12-28T04:12:29;14.90;55.00
76878;DHT22;65843;50.692;12.844;2023-12-28T04:13:30;14.90;54.00
76878;DHT22;65843;50.692;12.844;2023-12-28T04:14:31;14.90;54.70
76878;DHT22;65843;50.692;12.844;2023-12-28T04:15:32;14.90;53.80
76878;DHT22;65843;50.692;12.844;2023-12-28T04:16:33;14.90;53.60
76878;DHT22;65843;50.692;12.844;2023-12-28T04:17:34;14.90;54.30
76878;DHT22;65843;50.692;12.844;2023-12-28T04:18:34;14.90;53.10
76878;DHT22;65843;50.692;12.844;2023-12-28T04:19:35;14.90;54.40
76878;DHT22;65843;50.692;12.844;2023-12-28T04:20:36;14.90;54.90
76878;DHT22;65843;50.692;12.844;2023-12-28T04:21:37;14.90;54.70
76878;DHT22;65843;50.692;12.844;2023-12-28T04:22:38;14.90;54.00
76878;DHT22;65843;50.692;12.844;2023-12-28T04:23:39;14.90;53.60
76878;DHT22;65843;50.692;12.844;2023-12-28T04:24:40;14.90;54.10
76878;DHT22;65843;50.692;12.844;2023-12-28T04:25:41;14.90;54.30
76878;DHT22;65843;50.692;12.844;2023-12-28T04:26:42;14.90;55.80
76878;DHT22;65843;50.692;12.844;2023-12-28T04:27:43;14.90;54.30
76878;DHT22;65843;50.692;12.844;2023-12-28T04:28:43;14.90;53.80
76878;DHT22;65843;50.692;12.844;2023-12-28T04:29:44;14.90;54.50
76878;DHT22;65843;50.692;12.844;2023-12-28T04:30:46;14.90;53.80
76878;DHT22;65843;50.692;12.844;2023-12-28T04:31:47;14.90;54.00
76878;DHT22;65843;50.692;12.844;2023-12-28T04:32:47;14.90;54.80
76878;DHT22;65843;50.692;12.844;2023-12-28T04:33:48;14.90;55.00
76878;DHT22;65843;50.692;12.844;2023-12-28T04:34:49;14.90;54.60
76878;DHT22;65843;50.692;12.844;2023-12-28T04:35:50;14.90;55.10
76878;DHT22;65843;50.692;12.844;2023-12-28T04:36:51;14.90;54.80
76878;DHT22;65843;50.692;12.844;2023-12-28T04:37:53;14.90;54.00
76878;DHT22;65843;50.692;12.844;2023-12-28T04:38:53;14.90;54.30
76878;DHT22;65843;50.692;12.844;2023-12-28T04:39:54;14.90;54.10
76878;DHT22;65843;50.692;12.844;2023-12-28T04:40:55;14.90;55.50
76878;DHT22;65843;50.692;12.844;2023-12-28T04:41:56;14.90;55.30
76878;DHT22;65843;50.692;12.844;2023-12-28T04:42:57;14.90;55.50
76878;DHT22;65843;50.692;12.844;2023-12-28T04:43:58;14.90;54.70
76878;DHT22;65843;50.692;12.844;2023-12-28T04:44:59;14.90;54.80
76878;DHT22;65843;50.692;12.844;2023-12-28T04:46:03;14.90;54.10
76878;DHT22;65843;50.692;12.844;2023-12-28T04:47:04;14.90;54.20
76878;DHT22;65843;50.692;12.844;2023-12-28T04:48:05;14.90;54.40
76878;DHT22;65843;50.692;12.844;2023-12-28T04:49:06;14.90;55.00
76878;DHT22;65843;50.692;12.844;2023-12-28T04:50:07;14.90;54.60
76878;DHT22;65843;50.692;12.844;2023-12-28T04:51:08;14.90;54.60
76878;DHT22;65843;50.692;12.844;2023-12-28T04:52:09;14.90;54.70
76878;DHT22;65843;50.692;12.844;2023-12-28T04:53:10;14.90;54.90
76878;DHT22;65843;50.692;12.844;2023-12-28T04:54:10;14.90;54.70
76878;DHT22;65843;50.692;12.844;2023-12-28T04:55:11;14.90;55.10
76878;DHT22;65843;50.692;12.844;2023-12-28T04:56:12;14.90;54.60
76878;DHT22;65843;50.692;12.844;2023-12-28T04:57:13;14.90;54.80
76878;DHT22;65843;50.692;12.844;2023-12-28T04:58:14;14.90;54.40
76878;DHT22;65843;50.692;12.844;2023-12-28T04:59:15;14.90;54.40
76878;DHT22;65843;50.692;12.844;2023-12-28T05:00:16;14.90;54.40
76878;DHT22;65843;50.692;12.844;2023-12-28T05:01:17;14.90;55.00
76878;DHT22;65843;50.692;12.844;2023-12-28T05:02:18;14.90;54.60
76878;DHT22;65843;50.692;12.844;2023-12-28T05:03:19;14.90;54.60
76878;DHT22;65843;50.692;12.844;2023-12-28T05:04:20;14.90;54.70
76878;DHT22;65843;50.692;12.844;2023-12-28T05:05:20;14.90;54.60
76878;DHT22;65843;50.692;12.844;2023-12-28T05:06:21;14.90;54.30
76878;DHT22;65843;50.692;12.844;2023-12-28T05:07:22;14.90;55.00
76878;DHT22;65843;50.692;12.844;2023-12-28T05:08:23;14.90;55.40
76878;DHT22;65843;50.692;12.844;2023-12-28T05:09:24;14.90;54.60
76878;DHT22;65843;50.692;12.844;2023-12-28T05:10:25;14.90;55.40
76878;DHT22;65843;50.692;12.844;2023-12-28T05:11:26;14.90;54.70
76878;DHT22;65843;50.692;12.844;2023-12-28T05:12:27;14.90;55.00
76878;DHT22;65843;50.692;12.844;2023-12-28T05:13:28;14.90;54.60
76878;DHT22;65843;50.692;12.844;2023-12-28T05:14:29;14.90;55.70
76878;DHT22;65843;50.692;12.844;2023-12-28T05:15:29;14.90;55.50
76878;DHT22;65843;50.692;12.844;2023-12-28T05:16:30;14.90;55.90
76878;DHT22;65843;50.692;12.844;2023-12-28T05:17:31;14.90;55.60
76878;DHT22;65843;50.692;12.844;2023-12-28T05:18:32;14.90;55.90
76878;DHT22;65843;50.692;12.844;2023-12-28T05:19:33;15.00;55.30
76878;DHT22;65843;50.692;12.844;2023-12-28T05:20:34;15.00;55.50
76878;DHT22;65843;50.692;12.844;2023-12-28T05:21:35;14.90;55.50
76878;DHT22;65843;50.692;12.844;2023-12-28T05:22:36;15.00;55.50
76878;DHT22;65843;50.692;12.844;2023-12-28T05:23:36;15.00;55.40
76878;DHT22;65843;50.692;12.844;2023-12-28T05:24:37;15.00;55.90
76878;DHT22;65843;50.692;12.844;2023-12-28T05:25:38;15.00;56.10
76878;DHT22;65843;50.692;12.844;2023-12-28T05:26:39;15.00;55.70
76878;DHT22;65843;50.692;12.844;2023-12-28T05:27:40;15.00;56.10
76878;DHT22;65843;50.692;12.844;2023-12-28T05:28:43;15.00;55.50
76878;DHT22;65843;50.692;12.844;2023-12-28T05:29:44;15.00;55.50
76878;DHT22;65843;50.692;12.844;2023-12-28T05:30:45;15.00;56.00
76878;DHT22;65843;50.692;12.844;2023-12-28T05:31:46;15.00;55.70
76878;DHT22;65843;50.692;12.844;2023-12-28T05:32:46;15.00;56.00
76878;DHT22;65843;50.692;12.844;2023-12-28T05:33:47;15.00;55.80
76878;DHT22;65843;50.692;12.844;2023-12-28T05:34:48;15.00;55.80
76878;DHT22;65843;50.692;12.844;2023-12-28T05:35:50;15.00;56.00
76878;DHT22;65843;50.692;12.844;2023-12-28T05:36:51;15.00;56.40
76878;DHT22;65843;50.692;12.844;2023-12-28T05:37:52;15.00;56.30
76878;DHT22;65843;50.692;12.844;2023-12-28T05:38:54;15.00;56.20
76878;DHT22;65843;50.692;12.844;2023-12-28T05:39:55;15.00;55.80
76878;DHT22;65843;50.692;12.844;2023-12-28T05:40:56;15.00;56.20
76878;DHT22;65843;50.692;12.844;2023-12-28T05:41:57;15.00;55.90
76878;DHT22;65843;50.692;12.844;2023-12-28T05:42:57;15.00;55.60
76878;DHT22;65843;50.692;12.844;2023-12-28T05:43:58;15.00;56.10
76878;DHT22;65843;50.692;12.844;2023-12-28T05:44:59;15.00;56.00
76878;DHT22;65843;50.692;12.844;2023-12-28T05:46:00;15.00;56.30
76878;DHT22;65843;50.692;12.844;2023-12-28T05:47:01;15.00;56.20
76878;DHT22;65843;50.692;12.844;2023-12-28T05:48:02;15.00;55.90
76878;DHT22;65843;50.692;12.844;2023-12-28T05:49:03;15.00;55.60
76878;DHT22;65843;50.692;12.844;2023-12-28T05:50:04;15.00;56.10
76878;DHT22;65843;50.692;12.844;2023-12-28T05:51:06;15.00;56.80
76878;DHT22;65843;50.692;12.844;2023-12-28T05:52:07;15.00;56.50
76878;DHT22;65843;50.692;12.844;2023-12-28T05:53:08;15.00;56.10
76878;DHT22;65843;50.692;12.844;2023-12-28T05:54:14;15.00;56.20
76878;DHT22;65843;50.692;12.844;2023-12-28T05:55:15;15.00;56.00
76878;DHT22;65843;50.692;12.844;2023-12-28T05:56:16;15.00;55.90
76878;DHT22;65843;50.692;12.844;2023-12-28T05:57:16;15.00;55.90
76878;DHT22;65843;50.692;12.844;2023-12-28T05:58:18;15.00;55.50
76878;DHT22;65843;50.692;12.844;2023-12-28T05:59:18;15.00;55.70
76878;DHT22;65843;50.692;12.844;2023-12-28T06:00:19;15.00;56.20
76878;DHT22;65843;50.692;12.844;2023-12-28T06:01:20;15.00;56.10
76878;DHT22;65843;50.692;12.844;2023-12-28T06:02:21;15.00;56.20
76878;DHT22;65843;50.692;12.844;2023-12-28T06:03:22;15.00;55.50
76878;DHT22;65843;50.692;12.844;2023-12-28T06:04:28;15.00;55.70
76878;DHT22;65843;50.692;12.844;2023-12-28T06:05:29;14.90;55.90
76878;DHT22;65843;50.692;12.844;2023-12-28T06:06:30;14.90;56.20
76878;DHT22;65843;50.692;12.844;2023-12-28T06:07:31;14.90;56.30
76878;DHT22;65843;50.692;12.844;2023-12-28T06:08:32;14.90;55.60
76878;DHT22;65843;50.692;12.844;2023-12-28T06:09:32;15.00;55.90
76878;DHT22;65843;50.692;12.844;2023-12-28T06:10:33;14.90;56.20
76878;DHT22;65843;50.692;12.844;2023-12-28T06:11:34;14.90;55.80
76878;DHT22;65843;50.692;12.844;2023-12-28T06:12:35;14.90;56.10
76878;DHT22;65843;50.692;12.844;2023-12-28T06:13:37;14.90;56.30
76878;DHT22;65843;50.692;12.844;2023-12-28T06:14:37;14.90;55.60
76878;DHT22;65843;50.692;12.844;2023-12-28T06:15:38;14.90;55.70
76878;DHT22;65843;50.692;12.844;2023-12-28T06:16:39;15.00;55.40
76878;DHT22;65843;50.692;12.844;2023-12-28T06:17:40;15.00;56.10
76878;DHT22;65843;50.692;12.844;2023-12-28T06:18:41;14.90;56.00
76878;DHT22;65843;50.692;12.844;2023-12-28T06:19:42;14.90;55.90
76878;DHT22;65843;50.692;12.844;2023-12-28T06:20:43;14.90;55.70
76878;DHT22;65843;50.692;12.844;2023-12-28T06:21:43;14.90;56.20
76878;DHT22;65843;50.692;12.844;2023-12-28T06:22:44;14.90;55.70